sensor_id;sensor_type;location;lat;lon;timestamp;pressure;altitude;pressure_sealevel;temperature;humidity
18755;BME280;35061;47.664;9.166;2023-03-04T00:00:53;102022.21;;;4.13;78.32
18755;BME280;35061;47.664;9.166;2023-03-04T00:03:21;102023.85;;;4.11;78.71
18755;BME280;35061;47.664;9.166;2023-03-04T00:05:49;102016.20;;;4.08;78.50
18755;BME280;35061;47.664;9.166;2023-03-04T00:08:17;102025.55;;;4.04;78.47
18755;BME280;35061;47.664;9.166;2023-03-04T00:10:45;102026.40;;;3.98;78.28
18755;BME280;35061;47.664;9.166;2023-03-04T00:13:13;102030.48;;;3.93;78.40
18755;BME280;35061;47.664;9.166;2023-03-04T00:15:40;102026.50;;;3.87;78.54
18755;BME280;35061;47.664;9.166;2023-03-04T00:18:08;102026.50;;;3.87;78.58
18755;BME280;35061;47.664;9.166;2023-03-04T00:20:36;102025.29;;;3.84;78.73
18755;BME280;35061;47.664;9.166;2023-03-04T00:23:03;102025.32;;;3.81;78.55
18755;BME280;35061;47.664;9.166;2023-03-04T00:25:31;102024.54;;;3.76;78.92
18755;BME280;35061;47.664;9.166;2023-03-04T00:28:00;102031.83;;;3.77;78.67
18755;BME280;35061;47.664;9.166;2023-03-04T00:30:27;102029.02;;;3.74;78.74
18755;BME280;35061;47.664;9.166;2023-03-04T00:32:55;102023.78;;;3.69;78.64
18755;BME280;35061;47.664;9.166;2023-03-04T00:35:23;102028.27;;;3.66;78.99
18755;BME280;35061;47.664;9.166;2023-03-04T00:37:51;102028.27;;;3.62;78.89
18755;BME280;35061;47.664;9.166;2023-03-04T00:40:18;102025.02;;;3.64;78.95
18755;BME280;35061;47.664;9.166;2023-03-04T00:42:46;102022.61;;;3.62;78.98
18755;BME280;35061;47.664;9.166;2023-03-04T00:45:14;102026.70;;;3.58;78.77
18755;BME280;35061;47.664;9.166;2023-03-04T00:47:42;102034.80;;;3.56;78.86
18755;BME280;35061;47.664;9.166;2023-03-04T00:50:10;102034.41;;;3.54;78.72
18755;BME280;35061;47.664;9.166;2023-03-04T00:52:38;102031.21;;;3.48;78.98
18755;BME280;35061;47.664;9.166;2023-03-04T00:55:06;102031.24;;;3.44;78.74
18755;BME280;35061;47.664;9.166;2023-03-04T00:57:34;102038.92;;;3.44;78.90
18755;BME280;35061;47.664;9.166;2023-03-04T01:00:03;102032.88;;;3.38;78.76
18755;BME280;35061;47.664;9.166;2023-03-04T01:02:31;102024.83;;;3.29;78.90
18755;BME280;35061;47.664;9.166;2023-03-04T01:04:59;102027.71;;;3.22;79.05
18755;BME280;35061;47.664;9.166;2023-03-04T01:07:26;102036.21;;;3.18;78.96
18755;BME280;35061;47.664;9.166;2023-03-04T01:09:54;102036.67;;;3.13;78.90
18755;BME280;35061;47.664;9.166;2023-03-04T01:12:22;102033.82;;;3.10;78.74
18755;BME280;35061;47.664;9.166;2023-03-04T01:14:49;102029.41;;;3.05;78.79
18755;BME280;35061;47.664;9.166;2023-03-04T01:17:17;102019.73;;;2.99;79.09
18755;BME280;35061;47.664;9.166;2023-03-04T01:19:45;102025.81;;;2.93;79.19
18755;BME280;35061;47.664;9.166;2023-03-04T01:22:12;102016.55;;;2.89;79.65
18755;BME280;35061;47.664;9.166;2023-03-04T01:24:42;102025.02;;;2.89;79.67
18755;BME280;35061;47.664;9.166;2023-03-04T01:27:10;102015.71;;;2.92;79.57
18755;BME280;35061;47.664;9.166;2023-03-04T01:29:37;102015.71;;;2.92;79.96
18755;BME280;35061;47.664;9.166;2023-03-04T01:32:05;102014.50;;;2.90;79.57
18755;BME280;35061;47.664;9.166;2023-03-04T01:34:33;102014.95;;;2.85;79.42
18755;BME280;35061;47.664;9.166;2023-03-04T01:37:01;102017.02;;;2.77;79.51
18755;BME280;35061;47.664;9.166;2023-03-04T01:39:28;102009.73;;;2.72;79.76
18755;BME280;35061;47.664;9.166;2023-03-04T01:41:56;102019.01;;;2.69;79.77
18755;BME280;35061;47.664;9.166;2023-03-04T01:44:24;102009.76;;;2.61;79.61
18755;BME280;35061;47.664;9.166;2023-03-04T01:46:53;102017.48;;;2.57;79.78
18755;BME280;35061;47.664;9.166;2023-03-04T01:49:22;102004.10;;;2.54;80.10
18755;BME280;35061;47.664;9.166;2023-03-04T01:51:52;102009.76;;;2.54;80.32
18755;BME280;35061;47.664;9.166;2023-03-04T01:54:21;102000.50;;;2.54;80.51
18755;BME280;35061;47.664;9.166;2023-03-04T01:56:50;102005.77;;;2.48;79.79
18755;BME280;35061;47.664;9.166;2023-03-04T01:59:19;102005.77;;;2.41;80.11
18755;BME280;35061;47.664;9.166;2023-03-04T02:01:58;102007.40;;;2.34;80.31
18755;BME280;35061;47.664;9.166;2023-03-04T02:04:31;102000.14;;;2.26;80.22
18755;BME280;35061;47.664;9.166;2023-03-04T02:07:01;102004.98;;;2.26;81.16
18755;BME280;35061;47.664;9.166;2023-03-04T02:09:31;101999.33;;;2.26;81.04
18755;BME280;35061;47.664;9.166;2023-03-04T02:11:59;102002.98;;;2.30;81.21
18755;BME280;35061;47.664;9.166;2023-03-04T02:14:28;101993.27;;;2.31;80.86
18755;BME280;35061;47.664;9.166;2023-03-04T02:16:55;101992.88;;;2.29;81.20
18755;BME280;35061;47.664;9.166;2023-03-04T02:21:51;101999.33;;;2.22;80.71
18755;BME280;35061;47.664;9.166;2023-03-04T02:24:28;101989.65;;;2.23;80.97
18755;BME280;35061;47.664;9.166;2023-03-04T02:26:57;101990.46;;;2.20;81.22
18755;BME280;35061;47.664;9.166;2023-03-04T02:29:26;101993.70;;;2.18;80.71
18755;BME280;35061;47.664;9.166;2023-03-04T02:31:54;101983.20;;;2.12;80.60
18755;BME280;35061;47.664;9.166;2023-03-04T02:34:27;101991.28;;;2.06;80.65
18755;BME280;35061;47.664;9.166;2023-03-04T02:36:56;101978.79;;;2.03;81.43
18755;BME280;35061;47.664;9.166;2023-03-04T02:39:30;101992.88;;;2.07;81.26
18755;BME280;35061;47.664;9.166;2023-03-04T02:42:00;101981.60;;;2.03;81.35
18755;BME280;35061;47.664;9.166;2023-03-04T02:44:30;101981.99;;;2.05;81.02
18755;BME280;35061;47.664;9.166;2023-03-04T02:46:58;101979.18;;;2.05;81.39
18755;BME280;35061;47.664;9.166;2023-03-04T02:49:28;101979.57;;;2.07;81.28
18755;BME280;35061;47.664;9.166;2023-03-04T02:52:04;101979.97;;;2.06;81.02
18755;BME280;35061;47.664;9.166;2023-03-04T02:54:32;101979.18;;;2.05;81.40
18755;BME280;35061;47.664;9.166;2023-03-04T02:57:02;101984.84;;;2.09;81.47
18755;BME280;35061;47.664;9.166;2023-03-04T02:59:30;101979.18;;;2.09;81.31
18755;BME280;35061;47.664;9.166;2023-03-04T03:01:58;101981.99;;;2.13;81.22
18755;BME280;35061;47.664;9.166;2023-03-04T03:04:26;101973.91;;;2.11;80.96
18755;BME280;35061;47.664;9.166;2023-03-04T03:06:54;101986.02;;;2.12;81.12
18755;BME280;35061;47.664;9.166;2023-03-04T03:09:22;101980.78;;;2.14;81.11
18755;BME280;35061;47.664;9.166;2023-03-04T03:11:50;101975.13;;;2.14;81.22
18755;BME280;35061;47.664;9.166;2023-03-04T03:14:17;101973.49;;;2.16;80.94
18755;BME280;35061;47.664;9.166;2023-03-04T03:16:45;101969.90;;;2.16;80.93
18755;BME280;35061;47.664;9.166;2023-03-04T03:19:13;101973.49;;;2.16;80.94
18755;BME280;35061;47.664;9.166;2023-03-04T03:21:41;101973.49;;;2.16;80.96
18755;BME280;35061;47.664;9.166;2023-03-04T03:24:08;101969.90;;;2.16;80.91
18755;BME280;35061;47.664;9.166;2023-03-04T03:26:36;101979.15;;;2.16;80.65
18755;BME280;35061;47.664;9.166;2023-03-04T03:29:06;101979.97;;;2.17;80.90
18755;BME280;35061;47.664;9.166;2023-03-04T03:31:34;101982.81;;;2.17;80.93
18755;BME280;35061;47.664;9.166;2023-03-04T03:34:01;101979.15;;;2.16;80.71
18755;BME280;35061;47.664;9.166;2023-03-04T03:36:29;101978.76;;;2.14;80.83
18755;BME280;35061;47.664;9.166;2023-03-04T03:38:57;101979.97;;;2.13;80.79
18755;BME280;35061;47.664;9.166;2023-03-04T03:41:25;101982.42;;;2.15;80.88
18755;BME280;35061;47.664;9.166;2023-03-04T03:43:52;101978.37;;;2.16;80.62
18755;BME280;35061;47.664;9.166;2023-03-04T03:46:20;101985.23;;;2.15;80.57
18755;BME280;35061;47.664;9.166;2023-03-04T03:48:48;101978.37;;;2.12;80.77
18755;BME280;35061;47.664;9.166;2023-03-04T03:51:15;101990.46;;;2.16;80.85
18755;BME280;35061;47.664;9.166;2023-03-04T03:53:43;101984.02;;;2.19;80.77
18755;BME280;35061;47.664;9.166;2023-03-04T03:56:11;101984.80;;;2.20;80.60
18755;BME280;35061;47.664;9.166;2023-03-04T03:58:38;101983.59;;;2.21;80.35
18755;BME280;35061;47.664;9.166;2023-03-04T04:01:06;101980.36;;;2.22;80.55
18755;BME280;35061;47.664;9.166;2023-03-04T04:03:35;101982.38;;;2.22;80.43
18755;BME280;35061;47.664;9.166;2023-03-04T04:06:03;101983.99;;;2.23;80.48
18755;BME280;35061;47.664;9.166;2023-03-04T04:08:31;101987.23;;;2.21;80.27
18755;BME280;35061;47.664;9.166;2023-03-04T04:10:59;101989.25;;;2.21;80.32
18755;BME280;35061;47.664;9.166;2023-03-04T04:13:27;101983.63;;;2.14;80.19
18755;BME280;35061;47.664;9.166;2023-03-04T04:15:55;101986.44;;;2.14;80.65
18755;BME280;35061;47.664;9.166;2023-03-04T04:18:22;101987.62;;;2.16;80.42
18755;BME280;35061;47.664;9.166;2023-03-04T04:20:52;101991.28;;;2.17;80.34
18755;BME280;35061;47.664;9.166;2023-03-04T04:23:20;101979.97;;;2.13;80.02
18755;BME280;35061;47.664;9.166;2023-03-04T04:25:48;101978.76;;;2.11;80.39
18755;BME280;35061;47.664;9.166;2023-03-04T04:28:16;101982.81;;;2.06;80.17
18755;BME280;35061;47.664;9.166;2023-03-04T04:30:43;101980.78;;;2.06;80.54
18755;BME280;35061;47.664;9.166;2023-03-04T04:33:11;101979.97;;;2.06;80.33
18755;BME280;35061;47.664;9.166;2023-03-04T04:35:39;101986.84;;;2.01;80.32
18755;BME280;35061;47.664;9.166;2023-03-04T04:38:07;101984.84;;;1.98;80.43
18755;BME280;35061;47.664;9.166;2023-03-04T04:40:35;101986.05;;;2.01;80.67
18755;BME280;35061;47.664;9.166;2023-03-04T04:43:03;101989.68;;;2.01;80.42
18755;BME280;35061;47.664;9.166;2023-03-04T04:45:31;101985.66;;;1.99;80.39
18755;BME280;35061;47.664;9.166;2023-03-04T04:47:59;101994.52;;;1.97;80.36
18755;BME280;35061;47.664;9.166;2023-03-04T04:50:26;101991.70;;;1.97;80.32
18755;BME280;35061;47.664;9.166;2023-03-04T04:52:58;101992.10;;;1.95;80.31
18755;BME280;35061;47.664;9.166;2023-03-04T04:55:25;102001.38;;;1.89;80.57
18755;BME280;35061;47.664;9.166;2023-03-04T04:57:54;102001.38;;;1.89;81.01
18755;BME280;35061;47.664;9.166;2023-03-04T05:00:21;101997.76;;;1.85;81.44
18755;BME280;35061;47.664;9.166;2023-03-04T05:02:49;101994.52;;;1.90;81.08
18755;BME280;35061;47.664;9.166;2023-03-04T05:05:17;101993.30;;;1.91;81.25
18755;BME280;35061;47.664;9.166;2023-03-04T05:07:44;102001.77;;;1.91;81.24
18755;BME280;35061;47.664;9.166;2023-03-04T05:10:12;102000.99;;;1.94;81.35
18755;BME280;35061;47.664;9.166;2023-03-04T05:12:40;101999.39;;;1.97;81.07
18755;BME280;35061;47.664;9.166;2023-03-04T05:15:08;101996.55;;;1.89;81.35
18755;BME280;35061;47.664;9.166;2023-03-04T05:17:35;101994.55;;;1.86;81.62
18755;BME280;35061;47.664;9.166;2023-03-04T05:20:03;101992.91;;;1.85;81.84
18755;BME280;35061;47.664;9.166;2023-03-04T05:22:33;101997.33;;;1.90;81.86
18755;BME280;35061;47.664;9.166;2023-03-04T05:25:02;102005.83;;;1.86;82.50
18755;BME280;35061;47.664;9.166;2023-03-04T05:27:29;101998.15;;;1.87;82.43
18755;BME280;35061;47.664;9.166;2023-03-04T05:29:57;102007.86;;;1.89;82.18
18755;BME280;35061;47.664;9.166;2023-03-04T05:32:28;102005.02;;;1.86;82.17
18755;BME280;35061;47.664;9.166;2023-03-04T05:34:56;101998.57;;;1.78;83.25
18755;BME280;35061;47.664;9.166;2023-03-04T05:37:23;102006.65;;;1.76;83.19
18755;BME280;35061;47.664;9.166;2023-03-04T05:39:51;102008.25;;;1.73;84.91
18755;BME280;35061;47.664;9.166;2023-03-04T05:42:19;102007.44;;;1.73;84.08
18755;BME280;35061;47.664;9.166;2023-03-04T05:44:46;102008.25;;;1.73;84.41
18755;BME280;35061;47.664;9.166;2023-03-04T05:47:14;102008.64;;;1.72;84.18
18755;BME280;35061;47.664;9.166;2023-03-04T05:49:42;102009.04;;;1.74;84.59
18755;BME280;35061;47.664;9.166;2023-03-04T05:52:11;102003.80;;;1.72;84.52
18755;BME280;35061;47.664;9.166;2023-03-04T05:54:38;102007.83;;;1.78;84.92
18755;BME280;35061;47.664;9.166;2023-03-04T05:57:06;102013.88;;;1.80;84.65
18755;BME280;35061;47.664;9.166;2023-03-04T05:59:34;102014.70;;;1.77;86.42
18755;BME280;35061;47.664;9.166;2023-03-04T06:02:02;102016.72;;;1.80;86.27
18755;BME280;35061;47.664;9.166;2023-03-04T06:04:29;102019.14;;;1.86;85.53
18755;BME280;35061;47.664;9.166;2023-03-04T06:06:57;102015.51;;;1.89;85.30
18755;BME280;35061;47.664;9.166;2023-03-04T06:09:25;102021.17;;;1.89;85.50
18755;BME280;35061;47.664;9.166;2023-03-04T06:11:52;102025.19;;;1.88;86.00
18755;BME280;35061;47.664;9.166;2023-03-04T06:14:20;102027.61;;;1.86;85.38
18755;BME280;35061;47.664;9.166;2023-03-04T06:16:48;102032.09;;;1.94;85.61
18755;BME280;35061;47.664;9.166;2023-03-04T06:19:16;102040.56;;;1.94;86.27
18755;BME280;35061;47.664;9.166;2023-03-04T06:21:44;102042.98;;;1.88;86.11
18755;BME280;35061;47.664;9.166;2023-03-04T06:24:11;102049.03;;;1.87;87.87
18755;BME280;35061;47.664;9.166;2023-03-04T06:26:39;102050.63;;;1.88;87.24
18755;BME280;35061;47.664;9.166;2023-03-04T06:29:07;102049.42;;;1.92;86.74
18755;BME280;35061;47.664;9.166;2023-03-04T06:31:34;102050.24;;;1.93;86.58
18755;BME280;35061;47.664;9.166;2023-03-04T06:34:02;102055.47;;;1.94;86.74
18755;BME280;35061;47.664;9.166;2023-03-04T06:36:30;102057.50;;;1.94;86.98
18755;BME280;35061;47.664;9.166;2023-03-04T06:38:58;102062.34;;;1.93;88.19
18755;BME280;35061;47.664;9.166;2023-03-04T06:41:25;102067.21;;;1.93;88.79
18755;BME280;35061;47.664;9.166;2023-03-04T06:43:53;102069.59;;;1.94;88.31
18755;BME280;35061;47.664;9.166;2023-03-04T06:46:21;102069.59;;;1.98;88.16
18755;BME280;35061;47.664;9.166;2023-03-04T06:48:49;102065.97;;;2.05;88.65
18755;BME280;35061;47.664;9.166;2023-03-04T06:51:18;102062.77;;;2.06;88.21
18755;BME280;35061;47.664;9.166;2023-03-04T06:53:46;102066.36;;;2.07;87.82
18755;BME280;35061;47.664;9.166;2023-03-04T06:56:14;102068.81;;;2.05;89.51
18755;BME280;35061;47.664;9.166;2023-03-04T06:58:44;102069.20;;;1.96;90.70
18755;BME280;35061;47.664;9.166;2023-03-04T07:01:24;102077.67;;;1.96;90.10
18755;BME280;35061;47.664;9.166;2023-03-04T07:03:53;102077.28;;;1.94;90.68
18755;BME280;35061;47.664;9.166;2023-03-04T07:06:24;102078.10;;;2.02;89.71
18755;BME280;35061;47.664;9.166;2023-03-04T07:08:53;102082.55;;;2.10;89.34
18755;BME280;35061;47.664;9.166;2023-03-04T07:11:21;102083.33;;;2.18;89.45
18755;BME280;35061;47.664;9.166;2023-03-04T07:13:50;102082.94;;;2.23;89.25
18755;BME280;35061;47.664;9.166;2023-03-04T07:16:20;102083.37;;;2.29;89.17
18755;BME280;35061;47.664;9.166;2023-03-04T07:18:48;102078.10;;;2.23;90.01
18755;BME280;35061;47.664;9.166;2023-03-04T07:21:17;102077.70;;;2.25;89.47
18755;BME280;35061;47.664;9.166;2023-03-04T07:23:45;102089.80;;;2.33;89.31
18755;BME280;35061;47.664;9.166;2023-03-04T07:26:13;102086.14;;;2.32;89.05
18755;BME280;35061;47.664;9.166;2023-03-04T07:28:41;102088.59;;;2.34;89.09
18755;BME280;35061;47.664;9.166;2023-03-04T07:31:10;102086.99;;;2.36;88.97
18755;BME280;35061;47.664;9.166;2023-03-04T07:33:38;102092.23;;;2.34;89.10
18755;BME280;35061;47.664;9.166;2023-03-04T07:36:05;102091.02;;;2.21;90.25
18755;BME280;35061;47.664;9.166;2023-03-04T07:38:33;102080.95;;;2.09;90.17
18755;BME280;35061;47.664;9.166;2023-03-04T07:41:01;102096.25;;;1.97;91.47
18755;BME280;35061;47.664;9.166;2023-03-04T07:43:29;102091.80;;;1.89;91.71
18755;BME280;35061;47.664;9.166;2023-03-04T07:45:59;102089.80;;;1.89;91.54
18755;BME280;35061;47.664;9.166;2023-03-04T07:48:28;102095.89;;;2.02;90.93
18755;BME280;35061;47.664;9.166;2023-03-04T07:51:19;102104.33;;;2.09;90.24
18755;BME280;35061;47.664;9.166;2023-03-04T07:53:49;102093.05;;;2.09;90.51
18755;BME280;35061;47.664;9.166;2023-03-04T07:56:23;102102.72;;;2.16;90.25
18755;BME280;35061;47.664;9.166;2023-03-04T07:58:52;102098.30;;;2.18;89.93
18755;BME280;35061;47.664;9.166;2023-03-04T08:01:26;102100.30;;;2.18;90.00
18755;BME280;35061;47.664;9.166;2023-03-04T08:03:54;102095.86;;;2.17;90.03
18755;BME280;35061;47.664;9.166;2023-03-04T08:06:22;102101.52;;;2.20;90.08
18755;BME280;35061;47.664;9.166;2023-03-04T08:08:58;102099.88;;;2.23;89.82
18755;BME280;35061;47.664;9.166;2023-03-04T08:11:27;102100.34;;;2.25;89.85
18755;BME280;35061;47.664;9.166;2023-03-04T08:13:55;102097.49;;;2.25;90.09
18755;BME280;35061;47.664;9.166;2023-03-04T08:16:24;102103.15;;;2.29;89.88
18755;BME280;35061;47.664;9.166;2023-03-04T08:18:54;102103.97;;;2.40;89.88
18755;BME280;35061;47.664;9.166;2023-03-04T08:21:23;102096.25;;;2.44;89.75
18755;BME280;35061;47.664;9.166;2023-03-04T08:23:52;102094.65;;;2.50;89.80
18755;BME280;35061;47.664;9.166;2023-03-04T08:26:24;102105.14;;;2.57;89.62
18755;BME280;35061;47.664;9.166;2023-03-04T08:28:53;102100.27;;;2.58;89.37
18755;BME280;35061;47.664;9.166;2023-03-04T08:31:21;102102.33;;;2.61;89.47
18755;BME280;35061;47.664;9.166;2023-03-04T08:33:49;102106.32;;;2.63;89.37
18755;BME280;35061;47.664;9.166;2023-03-04T08:36:17;102098.66;;;2.68;89.34
18755;BME280;35061;47.664;9.166;2023-03-04T08:38:45;102102.27;;;2.72;89.18
18755;BME280;35061;47.664;9.166;2023-03-04T08:41:13;102098.63;;;2.78;88.97
18755;BME280;35061;47.664;9.166;2023-03-04T08:43:42;102103.05;;;2.87;88.92
18755;BME280;35061;47.664;9.166;2023-03-04T08:46:10;102092.95;;;2.89;88.86
18755;BME280;35061;47.664;9.166;2023-03-04T08:48:38;102093.73;;;2.93;88.86
18755;BME280;35061;47.664;9.166;2023-03-04T08:51:08;102096.54;;;3.01;88.79
18755;BME280;35061;47.664;9.166;2023-03-04T08:53:37;102103.02;;;3.05;88.55
18755;BME280;35061;47.664;9.166;2023-03-04T08:56:05;102094.52;;;3.05;88.25
18755;BME280;35061;47.664;9.166;2023-03-04T08:58:33;102104.23;;;3.07;88.22
18755;BME280;35061;47.664;9.166;2023-03-04T09:01:02;102100.99;;;3.09;88.35
18755;BME280;35061;47.664;9.166;2023-03-04T09:03:30;102102.16;;;3.15;88.08
18755;BME280;35061;47.664;9.166;2023-03-04T09:06:01;102109.82;;;3.18;87.88
18755;BME280;35061;47.664;9.166;2023-03-04T09:08:29;102104.98;;;3.23;87.77
18755;BME280;35061;47.664;9.166;2023-03-04T09:10:58;102103.73;;;3.27;87.79
18755;BME280;35061;47.664;9.166;2023-03-04T09:13:28;102100.04;;;3.38;87.61
18755;BME280;35061;47.664;9.166;2023-03-04T09:15:56;102095.17;;;3.38;87.49
18755;BME280;35061;47.664;9.166;2023-03-04T09:18:25;102094.77;;;3.40;87.36
18755;BME280;35061;47.664;9.166;2023-03-04T09:20:53;102094.74;;;3.47;87.80
18755;BME280;35061;47.664;9.166;2023-03-04T09:23:21;102088.17;;;3.61;87.39
18755;BME280;35061;47.664;9.166;2023-03-04T09:25:49;102091.37;;;3.70;86.91
18755;BME280;35061;47.664;9.166;2023-03-04T09:28:18;102087.26;;;3.79;87.01
18755;BME280;35061;47.664;9.166;2023-03-04T09:30:46;102085.30;;;3.72;86.51
18755;BME280;35061;47.664;9.166;2023-03-04T09:33:14;102087.26;;;3.79;86.63
18755;BME280;35061;47.664;9.166;2023-03-04T09:35:42;102079.15;;;3.84;86.37
18755;BME280;35061;47.664;9.166;2023-03-04T09:38:09;102073.45;;;3.88;86.36
18755;BME280;35061;47.664;9.166;2023-03-04T09:40:46;102077.02;;;3.96;86.27
18755;BME280;35061;47.664;9.166;2023-03-04T09:43:24;102073.75;;;4.04;85.37
18755;BME280;35061;47.664;9.166;2023-03-04T09:45:59;102082.16;;;4.15;85.98
18755;BME280;35061;47.664;9.166;2023-03-04T09:48:43;102074.37;;;4.23;85.15
18755;BME280;35061;47.664;9.166;2023-03-04T09:56:59;102083.95;;;4.40;84.88
18755;BME280;35061;47.664;9.166;2023-03-04T09:59:42;102083.10;;;4.47;84.63
18755;BME280;35061;47.664;9.166;2023-03-04T10:02:28;102077.77;;;4.53;84.20
18755;BME280;35061;47.664;9.166;2023-03-04T10:05:02;102074.50;;;4.54;84.36
18755;BME280;35061;47.664;9.166;2023-03-04T10:07:35;102068.75;;;4.61;84.14
18755;BME280;35061;47.664;9.166;2023-03-04T10:10:12;102061.81;;;4.66;84.21
18755;BME280;35061;47.664;9.166;2023-03-04T10:12:45;102066.59;;;4.77;83.92
18755;BME280;35061;47.664;9.166;2023-03-04T10:17:55;102066.46;;;4.87;83.73
18755;BME280;35061;47.664;9.166;2023-03-04T10:20:37;102067.60;;;4.94;83.52
18755;BME280;35061;47.664;9.166;2023-03-04T10:23:15;102065.05;;;5.03;83.47
18755;BME280;35061;47.664;9.166;2023-03-04T10:25:45;102066.20;;;5.09;83.17
18755;BME280;35061;47.664;9.166;2023-03-04T10:28:18;102062.05;;;5.17;83.01
18755;BME280;35061;47.664;9.166;2023-03-04T10:31:08;102057.50;;;5.24;82.66
18755;BME280;35061;47.664;9.166;2023-03-04T10:33:39;102050.92;;;5.30;82.35
18755;BME280;35061;47.664;9.166;2023-03-04T10:36:16;102057.34;;;5.35;82.14
18755;BME280;35061;47.664;9.166;2023-03-04T10:38:48;102046.71;;;5.42;82.11
18755;BME280;35061;47.664;9.166;2023-03-04T10:41:22;102048.63;;;5.49;82.09
18755;BME280;35061;47.664;9.166;2023-03-04T10:46:30;102051.25;;;5.64;81.78
18755;BME280;35061;47.664;9.166;2023-03-04T10:48:58;102044.68;;;5.70;81.85
18755;BME280;35061;47.664;9.166;2023-03-04T10:51:27;102032.38;;;5.77;81.74
18755;BME280;35061;47.664;9.166;2023-03-04T10:54:09;102037.65;;;5.79;81.48
18755;BME280;35061;47.664;9.166;2023-03-04T10:59:29;102016.46;;;5.83;80.94
18755;BME280;35061;47.664;9.166;2023-03-04T11:02:12;102018.48;;;5.83;81.06
18755;BME280;35061;47.664;9.166;2023-03-04T11:04:40;102027.02;;;5.83;81.01
18755;BME280;35061;47.664;9.166;2023-03-04T11:07:09;102023.33;;;5.86;80.88
18755;BME280;35061;47.664;9.166;2023-03-04T11:09:37;102025.65;;;5.91;80.85
18755;BME280;35061;47.664;9.166;2023-03-04T11:12:15;102018.26;;;5.97;80.71
18755;BME280;35061;47.664;9.166;2023-03-04T11:14:52;102024.73;;;5.98;80.38
18755;BME280;35061;47.664;9.166;2023-03-04T11:17:30;102016.55;;;6.00;80.50
18755;BME280;35061;47.664;9.166;2023-03-04T11:20:24;102007.60;;;6.05;80.29
18755;BME280;35061;47.664;9.166;2023-03-04T11:22:54;102012.41;;;6.08;80.37
18755;BME280;35061;47.664;9.166;2023-03-04T11:25:30;102007.47;;;6.12;80.13
18755;BME280;35061;47.664;9.166;2023-03-04T11:28:03;102005.38;;;6.17;79.97
18755;BME280;35061;47.664;9.166;2023-03-04T11:30:51;101995.89;;;6.23;79.90
18755;BME280;35061;47.664;9.166;2023-03-04T11:33:32;101997.00;;;6.30;79.71
18755;BME280;35061;47.664;9.166;2023-03-04T11:38:50;101989.02;;;6.45;79.44
18755;BME280;35061;47.664;9.166;2023-03-04T11:43:50;101992.88;;;6.54;79.25
18755;BME280;35061;47.664;9.166;2023-03-04T11:46:43;101993.70;;;6.55;79.23
18755;BME280;35061;47.664;9.166;2023-03-04T11:52:44;101978.13;;;6.60;79.70
18755;BME280;35061;47.664;9.166;2023-03-04T11:55:39;101979.67;;;6.84;79.95
18755;BME280;35061;47.664;9.166;2023-03-04T12:01:09;101966.43;;;7.15;77.73
18755;BME280;35061;47.664;9.166;2023-03-04T12:12:24;101960.41;;;7.62;75.71
18755;BME280;35061;47.664;9.166;2023-03-04T12:31:22;101921.01;;;8.66;72.66
18755;BME280;35061;47.664;9.166;2023-03-04T12:44:17;101903.22;;;9.01;70.77
18755;BME280;35061;47.664;9.166;2023-03-04T12:49:29;101894.65;;;9.27;70.12
18755;BME280;35061;47.664;9.166;2023-03-04T12:55:15;101888.80;;;9.43;68.81
18755;BME280;35061;47.664;9.166;2023-03-04T12:57:43;101885.33;;;9.61;69.32
18755;BME280;35061;47.664;9.166;2023-03-04T13:03:20;101872.41;;;9.70;68.56
18755;BME280;35061;47.664;9.166;2023-03-04T13:09:39;101868.03;;;9.78;67.65
18755;BME280;35061;47.664;9.166;2023-03-04T13:12:40;101858.98;;;9.80;67.08
18755;BME280;35061;47.664;9.166;2023-03-04T13:14:33;101865.74;;;9.73;66.56
18755;BME280;35061;47.664;9.166;2023-03-04T13:17:35;101853.65;;;9.69;66.88
18755;BME280;35061;47.664;9.166;2023-03-04T13:20:19;101843.18;;;9.75;66.93
18755;BME280;35061;47.664;9.166;2023-03-04T13:51:39;101812.02;;;10.12;65.26
18755;BME280;35061;47.664;9.166;2023-03-04T13:56:45;101811.49;;;9.82;64.68
18755;BME280;35061;47.664;9.166;2023-03-04T13:59:38;101815.23;;;9.57;65.27
18755;BME280;35061;47.664;9.166;2023-03-04T14:02:18;101810.71;;;9.33;65.45
18755;BME280;35061;47.664;9.166;2023-03-04T14:04:59;101826.54;;;9.12;66.17
18755;BME280;35061;47.664;9.166;2023-03-04T14:07:35;101819.57;;;9.00;66.56
18755;BME280;35061;47.664;9.166;2023-03-04T14:10:20;101818.88;;;8.83;66.87
18755;BME280;35061;47.664;9.166;2023-03-04T14:12:55;101821.73;;;8.57;67.56
18755;BME280;35061;47.664;9.166;2023-03-04T14:15:28;101814.70;;;8.45;68.18
18755;BME280;35061;47.664;9.166;2023-03-04T14:17:58;101812.97;;;8.35;68.55
18755;BME280;35061;47.664;9.166;2023-03-04T14:20:32;101815.02;;;8.21;69.05
18755;BME280;35061;47.664;9.166;2023-03-04T14:23:03;101809.60;;;8.10;69.58
18755;BME280;35061;47.664;9.166;2023-03-04T14:25:33;101803.74;;;8.01;70.22
18755;BME280;35061;47.664;9.166;2023-03-04T14:30:43;101796.78;;;7.89;70.80
18755;BME280;35061;47.664;9.166;2023-03-04T14:33:21;101792.07;;;7.82;71.04
18755;BME280;35061;47.664;9.166;2023-03-04T14:35:52;101788.34;;;7.69;71.24
18755;BME280;35061;47.664;9.166;2023-03-04T14:38:24;101785.47;;;7.56;71.73
18755;BME280;35061;47.664;9.166;2023-03-04T14:41:00;101794.55;;;7.51;71.95
18755;BME280;35061;47.664;9.166;2023-03-04T14:43:34;101783.34;;;7.44;72.31
18755;BME280;35061;47.664;9.166;2023-03-04T14:46:07;101774.09;;;7.39;72.51
18755;BME280;35061;47.664;9.166;2023-03-04T14:48:40;101770.26;;;7.30;72.78
18755;BME280;35061;47.664;9.166;2023-03-04T14:54:03;101775.33;;;7.22;73.40
18755;BME280;35061;47.664;9.166;2023-03-04T14:56:34;101766.44;;;7.20;73.25
18755;BME280;35061;47.664;9.166;2023-03-04T14:59:02;101763.95;;;7.22;73.63
18755;BME280;35061;47.664;9.166;2023-03-04T15:01:33;101768.49;;;7.19;73.71
18755;BME280;35061;47.664;9.166;2023-03-04T15:04:04;101760.74;;;7.20;74.26
18755;BME280;35061;47.664;9.166;2023-03-04T15:06:37;101757.90;;;7.20;74.18
18755;BME280;35061;47.664;9.166;2023-03-04T15:09:26;101757.48;;;7.21;74.49